createdAt,value
2022-10-18T00:00:22.148Z,1015.23
2022-10-18T00:01:22.214Z,1015.24
2022-10-18T00:02:22.245Z,1015.25
2022-10-18T00:03:22.235Z,1015.27
2022-10-18T00:04:22.149Z,1015.23
2022-10-18T00:05:22.140Z,1015.22
2022-10-18T00:06:22.168Z,1015.24
2022-10-18T00:07:22.173Z,1015.23
2022-10-18T00:08:22.156Z,1015.25
2022-10-18T00:09:22.168Z,1015.27
2022-10-18T00:10:22.162Z,1015.29
2022-10-18T00:11:22.264Z,1015.27
2022-10-18T00:12:22.181Z,1015.24
2022-10-18T00:13:22.146Z,1015.26
2022-10-18T00:14:22.153Z,1015.27
2022-10-18T00:15:22.138Z,1015.26
2022-10-18T00:16:22.199Z,1015.24
2022-10-18T00:17:22.183Z,1015.23
2022-10-18T00:18:22.151Z,1015.22
2022-10-18T00:19:27.115Z,1015.22
2022-10-18T00:20:22.155Z,1015.23
2022-10-18T00:21:22.189Z,1015.25
2022-10-18T00:22:22.173Z,1015.23
2022-10-18T00:23:22.169Z,1015.28
2022-10-18T00:24:22.140Z,1015.21
2022-10-18T00:25:22.169Z,1015.23
2022-10-18T00:26:22.314Z,1015.25
2022-10-18T00:27:22.182Z,1015.25
2022-10-18T00:28:22.135Z,1015.22
2022-10-18T00:29:22.145Z,1015.19
2022-10-18T00:30:22.141Z,1015.22
2022-10-18T00:31:22.195Z,1015.18
2022-10-18T00:32:22.160Z,1015.19
2022-10-18T00:33:22.152Z,1015.2
2022-10-18T00:34:22.354Z,1015.22
2022-10-18T00:35:22.169Z,1015.21
2022-10-18T00:36:22.504Z,1015.17
2022-10-18T00:37:22.279Z,1015.16
2022-10-18T00:38:22.193Z,1015.08
2022-10-18T00:39:22.255Z,1015.11
2022-10-18T00:40:22.147Z,1015.09
2022-10-18T00:41:22.420Z,1015.08
2022-10-18T00:42:22.181Z,1015.09
2022-10-18T00:43:22.466Z,1015.09
2022-10-18T00:44:22.288Z,1015.07
2022-10-18T00:45:22.150Z,1015.14
2022-10-18T00:46:22.349Z,1015.15
2022-10-18T00:47:22.154Z,1015.12
2022-10-18T00:48:22.208Z,1015.13
2022-10-18T00:49:22.156Z,1015.13
2022-10-18T00:50:22.285Z,1015.15
2022-10-18T00:51:22.200Z,1015.08
2022-10-18T00:52:22.149Z,1015.07
2022-10-18T00:53:22.167Z,1015.05
2022-10-18T00:54:22.152Z,1015.02
2022-10-18T00:55:22.144Z,1014.99
2022-10-18T00:56:22.197Z,1015.01
2022-10-18T00:57:22.144Z,1014.96
2022-10-18T00:58:22.147Z,1015.01
2022-10-18T00:59:22.162Z,1014.91
2022-10-18T01:00:22.231Z,1014.94
2022-10-18T01:01:28.469Z,1014.97
2022-10-18T01:02:22.147Z,1014.93
2022-10-18T01:03:22.145Z,1014.95
2022-10-18T01:04:22.135Z,1014.94
2022-10-18T01:05:22.135Z,1014.89
2022-10-18T01:06:22.197Z,1014.94
2022-10-18T01:07:22.139Z,1014.9
2022-10-18T01:08:22.158Z,1014.91
2022-10-18T01:09:22.190Z,1014.92
2022-10-18T01:10:22.179Z,1014.93
2022-10-18T01:11:22.388Z,1014.92
2022-10-18T01:12:22.329Z,1014.88
2022-10-18T01:13:28.234Z,1014.93
2022-10-18T01:14:22.214Z,1014.88
2022-10-18T01:15:22.234Z,1014.88
2022-10-18T01:16:22.296Z,1014.88
2022-10-18T01:17:22.240Z,1014.87
2022-10-18T01:18:22.258Z,1014.83
2022-10-18T01:19:22.231Z,1014.81
2022-10-18T01:20:22.297Z,1014.88
2022-10-18T01:21:22.327Z,1014.81
2022-10-18T01:22:22.500Z,1014.81
2022-10-18T01:23:22.249Z,1014.77
2022-10-18T01:24:22.240Z,1014.8
2022-10-18T01:25:22.268Z,1014.78
2022-10-18T01:26:22.327Z,1014.77
2022-10-18T01:27:22.283Z,1014.77
2022-10-18T01:28:22.624Z,1014.77
2022-10-18T01:29:22.531Z,1014.71
2022-10-18T01:30:22.267Z,1014.73
2022-10-18T01:31:22.279Z,1014.72
2022-10-18T01:32:22.585Z,1014.73
2022-10-18T01:33:22.141Z,1014.68
2022-10-18T01:34:22.397Z,1014.72
2022-10-18T01:35:22.446Z,1014.74
2022-10-18T01:36:22.769Z,1014.67
2022-10-18T01:37:22.225Z,1014.72
2022-10-18T01:38:22.594Z,1014.72
2022-10-18T01:39:22.831Z,1014.73
2022-10-18T01:40:22.206Z,1014.74
2022-10-18T01:41:22.198Z,1014.7
2022-10-18T01:42:22.218Z,1014.75
2022-10-18T01:43:22.150Z,1014.72
2022-10-18T01:44:22.237Z,1014.74
2022-10-18T01:45:22.217Z,1014.77
2022-10-18T01:46:22.187Z,1014.78
2022-10-18T01:47:22.150Z,1014.78
2022-10-18T01:48:22.142Z,1014.72
2022-10-18T01:49:22.142Z,1014.78
2022-10-18T01:50:22.174Z,1014.78
2022-10-18T01:51:22.196Z,1014.76
2022-10-18T01:52:22.149Z,1014.76
2022-10-18T01:53:22.195Z,1014.76
2022-10-18T01:54:22.149Z,1014.77
2022-10-18T01:55:22.191Z,1014.8
2022-10-18T01:56:22.192Z,1014.8
2022-10-18T01:57:22.399Z,1014.83
2022-10-18T01:58:22.147Z,1014.82
2022-10-18T01:59:22.148Z,1014.85
2022-10-18T02:00:22.181Z,1014.82
2022-10-18T02:01:22.497Z,1014.83
2022-10-18T02:02:22.180Z,1014.81
2022-10-18T02:03:22.168Z,1014.76
2022-10-18T02:04:22.493Z,1014.76
2022-10-18T02:05:22.671Z,1014.78
2022-10-18T02:06:22.167Z,1014.8
2022-10-18T02:07:22.491Z,1014.76
2022-10-18T02:08:25.705Z,1014.73
2022-10-18T02:09:22.344Z,1014.7
2022-10-18T02:10:22.625Z,1014.72
2022-10-18T02:11:22.373Z,1014.71
2022-10-18T02:12:22.698Z,1014.73
2022-10-18T02:13:22.392Z,1014.73
2022-10-18T02:14:22.139Z,1014.69
2022-10-18T02:15:22.382Z,1014.7
2022-10-18T02:16:22.241Z,1014.68
2022-10-18T02:17:22.457Z,1014.67
2022-10-18T02:18:22.283Z,1014.67
2022-10-18T02:19:22.633Z,1014.62
2022-10-18T02:20:22.941Z,1014.59
2022-10-18T02:21:22.242Z,1014.58
2022-10-18T02:22:22.562Z,1014.58
2022-10-18T02:23:22.361Z,1014.6
2022-10-18T02:24:22.151Z,1014.58
2022-10-18T02:25:22.277Z,1014.55
2022-10-18T02:26:22.203Z,1014.56
2022-10-18T02:27:22.502Z,1014.53
2022-10-18T02:28:22.258Z,1014.54
2022-10-18T02:29:22.448Z,1014.51
2022-10-18T02:30:22.172Z,1014.53
2022-10-18T02:31:22.300Z,1014.49
2022-10-18T02:32:22.394Z,1014.48
2022-10-18T02:33:22.168Z,1014.5
2022-10-18T02:34:22.137Z,1014.49
2022-10-18T02:35:22.301Z,1014.47
2022-10-18T02:36:22.183Z,1014.51
2022-10-18T02:37:22.225Z,1014.5
2022-10-18T02:38:22.184Z,1014.53
2022-10-18T02:39:22.463Z,1014.54
2022-10-18T02:40:22.215Z,1014.52
2022-10-18T02:41:22.208Z,1014.51
2022-10-18T02:42:22.197Z,1014.48
2022-10-18T02:43:22.251Z,1014.53
2022-10-18T02:44:22.139Z,1014.53
2022-10-18T02:45:22.184Z,1014.52
2022-10-18T02:46:22.226Z,1014.48
2022-10-18T02:47:22.150Z,1014.48
2022-10-18T02:48:22.139Z,1014.47
2022-10-18T02:49:22.153Z,1014.48
2022-10-18T02:50:22.173Z,1014.52
2022-10-18T02:51:22.297Z,1014.53
2022-10-18T02:52:22.244Z,1014.55
2022-10-18T02:53:22.151Z,1014.57
2022-10-18T02:54:22.159Z,1014.63
2022-10-18T02:55:22.174Z,1014.63
2022-10-18T02:56:22.188Z,1014.65
2022-10-18T02:57:22.168Z,1014.64
2022-10-18T02:58:22.147Z,1014.65
2022-10-18T02:59:22.145Z,1014.62
2022-10-18T03:00:22.136Z,1014.6
2022-10-18T03:01:22.230Z,1014.61
2022-10-18T03:02:22.284Z,1014.56
2022-10-18T03:03:22.184Z,1014.57
2022-10-18T03:04:22.186Z,1014.55
2022-10-18T03:05:22.154Z,1014.52
2022-10-18T03:06:22.413Z,1014.52
2022-10-18T03:07:22.143Z,1014.48
2022-10-18T03:08:22.168Z,1014.5
2022-10-18T03:09:22.147Z,1014.48
2022-10-18T03:10:22.147Z,1014.47
2022-10-18T03:11:22.182Z,1014.5
2022-10-18T03:12:22.175Z,1014.48
2022-10-18T03:13:22.282Z,1014.5
2022-10-18T03:14:22.171Z,1014.52
2022-10-18T03:15:22.155Z,1014.54
2022-10-18T03:16:22.208Z,1014.57
2022-10-18T03:17:22.159Z,1014.56
2022-10-18T03:18:22.147Z,1014.54
2022-10-18T03:19:22.154Z,1014.57
2022-10-18T03:20:22.153Z,1014.55
2022-10-18T03:21:22.206Z,1014.58
2022-10-18T03:22:22.210Z,1014.59
2022-10-18T03:23:22.158Z,1014.59
2022-10-18T03:24:22.137Z,1014.56
2022-10-18T03:25:22.263Z,1014.54
2022-10-18T03:26:22.302Z,1014.49
2022-10-18T03:27:22.194Z,1014.52
2022-10-18T03:28:22.149Z,1014.49
2022-10-18T03:29:22.153Z,1014.49
2022-10-18T03:30:22.140Z,1014.45
2022-10-18T03:31:22.221Z,1014.52
2022-10-18T03:32:22.195Z,1014.48
2022-10-18T03:33:22.163Z,1014.49
2022-10-18T03:34:22.150Z,1014.55
2022-10-18T03:35:22.168Z,1014.54
2022-10-18T03:36:22.193Z,1014.53
2022-10-18T03:37:22.350Z,1014.56
2022-10-18T03:38:22.152Z,1014.54
2022-10-18T03:39:22.153Z,1014.6
2022-10-18T03:40:22.196Z,1014.57
2022-10-18T03:41:22.176Z,1014.56
2022-10-18T03:42:22.174Z,1014.55
2022-10-18T03:43:22.145Z,1014.56
2022-10-18T03:44:22.150Z,1014.54
2022-10-18T03:45:22.155Z,1014.52
2022-10-18T03:46:22.202Z,1014.51
2022-10-18T03:47:22.315Z,1014.48
2022-10-18T03:48:22.134Z,1014.45
2022-10-18T03:49:22.321Z,1014.47
2022-10-18T03:50:22.158Z,1014.5
2022-10-18T03:51:22.503Z,1014.51
2022-10-18T03:52:22.148Z,1014.53
2022-10-18T03:53:22.376Z,1014.56
2022-10-18T03:54:22.270Z,1014.53
2022-10-18T03:55:22.153Z,1014.5
2022-10-18T03:56:22.310Z,1014.46
2022-10-18T03:57:22.184Z,1014.47
2022-10-18T03:58:22.519Z,1014.44
2022-10-18T03:59:22.200Z,1014.48
2022-10-18T04:00:22.451Z,1014.46
2022-10-18T04:01:22.257Z,1014.46
2022-10-18T04:02:22.153Z,1014.48
2022-10-18T04:03:22.270Z,1014.45
2022-10-18T04:04:22.150Z,1014.47
2022-10-18T04:05:22.160Z,1014.46
2022-10-18T04:06:22.193Z,1014.4
2022-10-18T04:07:22.139Z,1014.45
2022-10-18T04:08:22.146Z,1014.46
2022-10-18T04:09:22.147Z,1014.5
2022-10-18T04:10:22.151Z,1014.46
2022-10-18T04:11:22.234Z,1014.51
2022-10-18T04:12:22.315Z,1014.49
2022-10-18T04:13:22.192Z,1014.49
2022-10-18T04:14:22.161Z,1014.52
2022-10-18T04:15:22.134Z,1014.5
2022-10-18T04:16:22.191Z,1014.52
2022-10-18T04:17:22.145Z,1014.53
2022-10-18T04:18:22.178Z,1014.51
2022-10-18T04:19:22.139Z,1014.55
2022-10-18T04:20:22.326Z,1014.51
2022-10-18T04:21:22.268Z,1014.57
2022-10-18T04:22:22.274Z,1014.54
2022-10-18T04:23:23.390Z,1014.55
2022-10-18T04:24:22.850Z,1014.55
2022-10-18T04:25:22.332Z,1014.56
2022-10-18T04:26:22.187Z,1014.56
2022-10-18T04:27:22.522Z,1014.58
2022-10-18T04:28:22.180Z,1014.58
2022-10-18T04:29:22.480Z,1014.55
2022-10-18T04:30:22.237Z,1014.59
2022-10-18T04:31:22.925Z,1014.58
2022-10-18T04:32:22.389Z,1014.58
2022-10-18T04:33:22.165Z,1014.58
2022-10-18T04:34:22.474Z,1014.57
2022-10-18T04:35:22.168Z,1014.6
2022-10-18T04:36:22.500Z,1014.6
2022-10-18T04:37:22.201Z,1014.64
2022-10-18T04:38:22.509Z,1014.62
2022-10-18T04:39:22.805Z,1014.65
2022-10-18T04:40:23.203Z,1014.65
2022-10-18T04:41:23.483Z,1014.64
2022-10-18T04:42:23.330Z,1014.64
2022-10-18T04:43:22.699Z,1014.65
2022-10-18T04:44:21.983Z,1014.65
2022-10-18T04:45:22.239Z,1014.68
2022-10-18T04:46:22.588Z,1014.66
2022-10-18T04:47:21.974Z,1014.71
2022-10-18T04:48:22.147Z,1014.72
2022-10-18T04:49:22.696Z,1014.66
2022-10-18T04:50:22.379Z,1014.65
2022-10-18T04:51:22.395Z,1014.68
2022-10-18T04:52:22.657Z,1014.66
2022-10-18T04:53:22.149Z,1014.67
2022-10-18T04:54:28.551Z,1014.67
2022-10-18T04:55:22.149Z,1014.63
2022-10-18T04:56:22.196Z,1014.66
2022-10-18T04:57:22.227Z,1014.67
2022-10-18T04:58:22.144Z,1014.64
2022-10-18T04:59:22.154Z,1014.62
2022-10-18T05:00:22.176Z,1014.58
2022-10-18T05:01:22.302Z,1014.59
2022-10-18T05:02:22.193Z,1014.58
2022-10-18T05:03:22.150Z,1014.62
2022-10-18T05:04:22.155Z,1014.62
2022-10-18T05:05:22.186Z,1014.64
2022-10-18T05:06:22.187Z,1014.63
2022-10-18T05:07:22.198Z,1014.63
2022-10-18T05:08:22.170Z,1014.64
2022-10-18T05:09:22.158Z,1014.66
2022-10-18T05:10:22.139Z,1014.67
2022-10-18T05:11:22.211Z,1014.71
2022-10-18T05:12:22.282Z,1014.73
2022-10-18T05:13:22.188Z,1014.73
2022-10-18T05:14:22.149Z,1014.72
2022-10-18T05:15:22.143Z,1014.73
2022-10-18T05:16:22.190Z,1014.72
2022-10-18T05:17:22.178Z,1014.71
2022-10-18T05:18:22.150Z,1014.71
2022-10-18T05:19:22.156Z,1014.68
2022-10-18T05:20:22.188Z,1014.69
2022-10-18T05:21:22.202Z,1014.68
2022-10-18T05:22:22.206Z,1014.7
2022-10-18T05:23:22.157Z,1014.64
2022-10-18T05:24:28.171Z,1014.61
2022-10-18T05:25:22.142Z,1014.61
2022-10-18T05:26:22.190Z,1014.6
2022-10-18T05:27:22.159Z,1014.59
2022-10-18T05:28:39.064Z,1014.61
2022-10-18T05:29:22.305Z,1014.59
2022-10-18T05:30:22.158Z,1014.59
2022-10-18T05:31:22.327Z,1014.64
2022-10-18T05:32:22.442Z,1014.63
2022-10-18T05:33:22.372Z,1014.64
2022-10-18T05:34:22.322Z,1014.65
2022-10-18T05:35:22.337Z,1014.66
2022-10-18T05:36:22.237Z,1014.65
2022-10-18T05:37:28.386Z,1014.65
2022-10-18T05:38:22.287Z,1014.64
2022-10-18T05:39:22.456Z,1014.61
2022-10-18T05:40:22.728Z,1014.58
2022-10-18T05:41:22.395Z,1014.62
2022-10-18T05:42:22.186Z,1014.59
2022-10-18T05:43:22.315Z,1014.59
2022-10-18T05:44:22.646Z,1014.65
2022-10-18T05:45:22.428Z,1014.61
2022-10-18T05:46:22.202Z,1014.61
2022-10-18T05:47:22.187Z,1014.61
2022-10-18T05:48:22.330Z,1014.61
2022-10-18T05:49:22.148Z,1014.62
2022-10-18T05:50:22.156Z,1014.62
2022-10-18T05:51:22.228Z,1014.63
2022-10-18T05:52:22.458Z,1014.57
2022-10-18T05:53:36.549Z,1014.6
2022-10-18T05:54:22.148Z,1014.6
2022-10-18T05:55:22.202Z,1014.61
2022-10-18T05:56:22.195Z,1014.63
2022-10-18T05:57:22.183Z,1014.63
2022-10-18T05:58:22.152Z,1014.69
2022-10-18T05:59:22.167Z,1014.74
2022-10-18T06:00:22.152Z,1014.72
2022-10-18T06:01:22.191Z,1014.77
2022-10-18T06:02:22.163Z,1014.77
2022-10-18T06:03:22.184Z,1014.71
2022-10-18T06:04:22.171Z,1014.75
2022-10-18T06:05:22.137Z,1014.74
2022-10-18T06:06:22.200Z,1014.72
2022-10-18T06:07:22.159Z,1014.74
2022-10-18T06:08:22.178Z,1014.72
2022-10-18T06:09:22.323Z,1014.72
2022-10-18T06:10:22.140Z,1014.71
2022-10-18T06:11:22.184Z,1014.69
2022-10-18T06:12:22.158Z,1014.67
2022-10-18T06:13:22.157Z,1014.69
2022-10-18T06:14:22.148Z,1014.69
2022-10-18T06:15:22.152Z,1014.71
2022-10-18T06:16:22.233Z,1014.73
2022-10-18T06:17:22.163Z,1014.73
2022-10-18T06:18:22.291Z,1014.78
2022-10-18T06:19:22.168Z,1014.8
2022-10-18T06:20:22.147Z,1014.82
2022-10-18T06:21:22.192Z,1014.84
2022-10-18T06:22:22.140Z,1014.83
2022-10-18T06:23:22.145Z,1014.84
2022-10-18T06:24:22.151Z,1014.88
2022-10-18T06:25:22.154Z,1014.85
2022-10-18T06:26:22.200Z,1014.84
2022-10-18T06:27:22.148Z,1014.86
2022-10-18T06:28:22.178Z,1014.81
2022-10-18T06:29:22.165Z,1014.85
2022-10-18T06:30:22.162Z,1014.84
2022-10-18T06:31:22.207Z,1014.83
2022-10-18T06:32:22.285Z,1014.86
2022-10-18T06:33:22.194Z,1014.87
2022-10-18T06:34:22.128Z,1014.9
2022-10-18T06:35:22.138Z,1014.91
2022-10-18T06:36:22.189Z,1014.96
2022-10-18T06:37:22.156Z,1014.97
2022-10-18T06:38:22.156Z,1014.95
2022-10-18T06:39:22.174Z,1014.94
2022-10-18T06:40:22.151Z,1014.97
2022-10-18T06:41:22.206Z,1014.91
2022-10-18T06:42:25.180Z,1014.91
2022-10-18T06:43:25.194Z,1014.9
2022-10-18T06:44:22.143Z,1015
2022-10-18T06:45:22.189Z,1014.98
2022-10-18T06:46:22.178Z,1015.03
2022-10-18T06:47:22.147Z,1015.05
2022-10-18T06:48:23.164Z,1015.09
2022-10-18T06:49:22.316Z,1015.09
2022-10-18T06:50:22.171Z,1015.06
2022-10-18T06:51:22.513Z,1015.09
2022-10-18T06:52:22.461Z,1015.05
2022-10-18T06:53:22.318Z,1015.06
2022-10-18T06:54:22.270Z,1015.07
2022-10-18T06:55:22.569Z,1015.06
2022-10-18T06:56:22.430Z,1015.1
2022-10-18T06:57:22.363Z,1015.14
2022-10-18T06:58:22.477Z,1015.14
2022-10-18T06:59:22.973Z,1015.18
2022-10-18T07:00:22.551Z,1015.17
2022-10-18T07:01:22.912Z,1015.17
2022-10-18T07:02:22.683Z,1015.22
2022-10-18T07:03:22.962Z,1015.2
2022-10-18T07:04:22.245Z,1015.18
2022-10-18T07:05:22.500Z,1015.16
2022-10-18T07:06:22.188Z,1015.13
2022-10-18T07:07:22.422Z,1015.14
2022-10-18T07:08:22.680Z,1015.17
2022-10-18T07:09:22.138Z,1015.17
2022-10-18T07:10:22.393Z,1015.19
2022-10-18T07:11:22.252Z,1015.18
2022-10-18T07:12:22.449Z,1015.2
2022-10-18T07:13:32.244Z,1015.2
2022-10-18T07:14:28.847Z,1015.21
2022-10-18T07:15:22.216Z,1015.2
2022-10-18T07:16:22.217Z,1015.2
2022-10-18T07:17:22.145Z,1015.2
2022-10-18T07:18:22.195Z,1015.22
2022-10-18T07:19:22.147Z,1015.23
2022-10-18T07:20:22.197Z,1015.25
2022-10-18T07:21:22.183Z,1015.27
2022-10-18T07:22:22.978Z,1015.28
2022-10-18T07:23:22.158Z,1015.28
2022-10-18T07:24:22.231Z,1015.29
2022-10-18T07:25:23.174Z,1015.3
2022-10-18T07:26:22.206Z,1015.34
2022-10-18T07:27:22.287Z,1015.37
2022-10-18T07:28:22.146Z,1015.34
2022-10-18T07:29:22.153Z,1015.39
2022-10-18T07:30:22.203Z,1015.37
2022-10-18T07:31:22.188Z,1015.42
2022-10-18T07:32:22.149Z,1015.41
2022-10-18T07:33:22.176Z,1015.45
2022-10-18T07:34:22.158Z,1015.47
2022-10-18T07:35:22.160Z,1015.43
2022-10-18T07:36:22.241Z,1015.47
2022-10-18T07:37:24.351Z,1015.48
2022-10-18T07:38:22.150Z,1015.47
2022-10-18T07:39:22.155Z,1015.5
2022-10-18T07:40:22.137Z,1015.52
2022-10-18T07:41:22.184Z,1015.5
2022-10-18T07:42:22.150Z,1015.56
2022-10-18T07:43:22.143Z,1015.58
2022-10-18T07:44:22.142Z,1015.56
2022-10-18T07:45:22.162Z,1015.58
2022-10-18T07:46:22.202Z,1015.58
2022-10-18T07:47:22.260Z,1015.63
2022-10-18T07:48:22.159Z,1015.64
2022-10-18T07:49:22.148Z,1015.6
2022-10-18T07:50:22.165Z,1015.71
2022-10-18T07:51:22.329Z,1015.72
2022-10-18T07:52:22.289Z,1015.73
2022-10-18T07:53:22.522Z,1015.72
2022-10-18T07:54:22.813Z,1015.79
2022-10-18T07:55:23.073Z,1015.76
2022-10-18T07:56:23.499Z,1015.77
2022-10-18T07:57:21.796Z,1015.82
2022-10-18T07:58:22.119Z,1015.77
2022-10-18T07:59:22.398Z,1015.78
2022-10-18T08:00:22.656Z,1015.82
2022-10-18T08:01:23.370Z,1015.81
2022-10-18T08:02:22.537Z,1015.82
2022-10-18T08:03:22.632Z,1015.81
2022-10-18T08:04:22.058Z,1015.86
2022-10-18T08:05:22.463Z,1015.82
2022-10-18T08:06:22.763Z,1015.87
2022-10-18T08:07:22.148Z,1015.84
2022-10-18T08:08:22.166Z,1015.88
2022-10-18T08:09:22.156Z,1015.87
2022-10-18T08:10:22.150Z,1015.89
2022-10-18T08:11:22.208Z,1015.86
2022-10-18T08:12:22.148Z,1015.89
2022-10-18T08:13:22.223Z,1015.89
2022-10-18T08:14:22.251Z,1015.88
2022-10-18T08:15:22.152Z,1015.92
2022-10-18T08:16:22.295Z,1015.91
2022-10-18T08:17:22.146Z,1015.95
2022-10-18T08:18:22.173Z,1015.92
2022-10-18T08:19:22.152Z,1015.93
2022-10-18T08:20:31.412Z,1015.96
2022-10-18T08:21:22.184Z,1015.94
2022-10-18T08:22:22.257Z,1015.88
2022-10-18T08:23:22.252Z,1015.92
2022-10-18T08:24:22.161Z,1015.87
2022-10-18T08:25:22.219Z,1015.85
2022-10-18T08:26:22.419Z,1015.84
2022-10-18T08:27:22.149Z,1015.84
2022-10-18T08:28:22.173Z,1015.85
2022-10-18T08:29:31.933Z,1015.88
2022-10-18T08:30:22.157Z,1015.9
2022-10-18T08:31:22.190Z,1015.91
2022-10-18T08:32:22.155Z,1015.93
2022-10-18T08:33:22.179Z,1015.91
2022-10-18T08:34:23.187Z,1015.93
2022-10-18T08:35:22.149Z,1015.95
2022-10-18T08:36:22.203Z,1015.96
2022-10-18T08:37:22.147Z,1015.92
2022-10-18T08:38:22.153Z,1015.95
2022-10-18T08:39:22.162Z,1015.98
2022-10-18T08:40:22.135Z,1016.02
2022-10-18T08:41:22.358Z,1016.01
2022-10-18T08:42:22.140Z,1016.06
2022-10-18T08:43:25.234Z,1016.07
2022-10-18T08:44:22.387Z,1016.11
2022-10-18T08:45:41.748Z,1016.08
2022-10-18T08:46:22.405Z,1016.04
2022-10-18T08:47:22.456Z,1016.09
2022-10-18T08:48:22.476Z,1016.06
2022-10-18T08:49:22.372Z,1016.08
2022-10-18T08:50:22.338Z,1016.09
2022-10-18T08:51:22.317Z,1016.09
2022-10-18T08:52:22.566Z,1016.16
2022-10-18T08:53:22.260Z,1016.18
2022-10-18T08:54:22.442Z,1016.18
2022-10-18T08:55:22.174Z,1016.22
2022-10-18T08:56:22.472Z,1016.22
2022-10-18T08:57:22.144Z,1016.24
2022-10-18T08:58:22.182Z,1016.24
2022-10-18T08:59:28.427Z,1016.25
2022-10-18T09:00:22.405Z,1016.26
2022-10-18T09:01:22.194Z,1016.31
2022-10-18T09:02:22.199Z,1016.27
2022-10-18T09:03:22.401Z,1016.29
2022-10-18T09:04:22.143Z,1016.31
2022-10-18T09:05:22.157Z,1016.36
2022-10-18T09:06:25.535Z,1016.38
2022-10-18T09:07:22.489Z,1016.35
2022-10-18T09:08:22.154Z,1016.38
2022-10-18T09:09:22.159Z,1016.38
2022-10-18T09:10:22.166Z,1016.38
2022-10-18T09:11:22.231Z,1016.37
2022-10-18T09:12:22.302Z,1016.34
2022-10-18T09:13:22.149Z,1016.34
2022-10-18T09:14:22.156Z,1016.31
2022-10-18T09:15:22.144Z,1016.37
2022-10-18T09:16:22.179Z,1016.36
2022-10-18T09:17:22.173Z,1016.41
2022-10-18T09:18:22.146Z,1016.41
2022-10-18T09:19:22.160Z,1016.46
2022-10-18T09:20:22.294Z,1016.43
2022-10-18T09:21:22.258Z,1016.42
2022-10-18T09:22:22.176Z,1016.39
2022-10-18T09:23:22.158Z,1016.42
2022-10-18T09:24:22.155Z,1016.44
2022-10-18T09:25:22.150Z,1016.41
2022-10-18T09:26:22.189Z,1016.45
2022-10-18T09:27:22.145Z,1016.48
2022-10-18T09:28:22.151Z,1016.5
2022-10-18T09:29:22.167Z,1016.5
2022-10-18T09:30:22.161Z,1016.52
2022-10-18T09:31:22.209Z,1016.5
2022-10-18T09:32:22.161Z,1016.46
2022-10-18T09:33:22.186Z,1016.49
2022-10-18T09:34:22.255Z,1016.49
2022-10-18T09:35:22.161Z,1016.47
2022-10-18T09:36:22.185Z,1016.49
2022-10-18T09:37:22.144Z,1016.5
2022-10-18T09:38:22.228Z,1016.51
2022-10-18T09:39:22.154Z,1016.52
2022-10-18T09:40:22.135Z,1016.52
2022-10-18T09:41:22.190Z,1016.57
2022-10-18T09:42:22.167Z,1016.56
2022-10-18T09:43:22.187Z,1016.55
2022-10-18T09:44:22.141Z,1016.6
2022-10-18T09:45:22.277Z,1016.53
2022-10-18T09:46:22.216Z,1016.55
2022-10-18T09:47:22.298Z,1016.57
2022-10-18T09:48:22.163Z,1016.53
2022-10-18T09:49:22.142Z,1016.61
2022-10-18T09:50:22.144Z,1016.57
2022-10-18T09:51:22.192Z,1016.58
2022-10-18T09:52:22.145Z,1016.57
2022-10-18T09:53:22.149Z,1016.52
2022-10-18T09:54:22.185Z,1016.5
2022-10-18T09:55:22.157Z,1016.48
2022-10-18T09:56:22.317Z,1016.48
2022-10-18T09:57:22.224Z,1016.49
2022-10-18T09:58:22.214Z,1016.49
2022-10-18T09:59:22.204Z,1016.54
2022-10-18T10:00:22.418Z,1016.56
2022-10-18T10:01:22.187Z,1016.57
2022-10-18T10:02:22.508Z,1016.61
2022-10-18T10:03:22.420Z,1016.6
2022-10-18T10:04:22.147Z,1016.57
2022-10-18T10:05:22.382Z,1016.53
2022-10-18T10:06:22.395Z,1016.53
2022-10-18T10:07:22.449Z,1016.54
2022-10-18T10:08:22.282Z,1016.54
2022-10-18T10:09:22.593Z,1016.58
2022-10-18T10:10:23.428Z,1016.58
2022-10-18T10:11:22.205Z,1016.56
2022-10-18T10:12:22.170Z,1016.57
2022-10-18T10:13:22.443Z,1016.58
2022-10-18T10:14:22.151Z,1016.6
2022-10-18T10:15:22.382Z,1016.63
2022-10-18T10:16:22.276Z,1016.63
2022-10-18T10:17:22.466Z,1016.63
2022-10-18T10:18:22.286Z,1016.62
2022-10-18T10:19:22.200Z,1016.64
2022-10-18T10:20:22.367Z,1016.6
2022-10-18T10:21:22.191Z,1016.62
2022-10-18T10:22:23.038Z,1016.59
2022-10-18T10:23:22.448Z,1016.62
2022-10-18T10:24:22.784Z,1016.62
2022-10-18T10:25:22.293Z,1016.61
2022-10-18T10:26:22.301Z,1016.57
2022-10-18T10:27:22.166Z,1016.6
2022-10-18T10:28:22.188Z,1016.55
2022-10-18T10:29:43.920Z,1016.55
2022-10-18T10:30:22.145Z,1016.56
2022-10-18T10:31:22.201Z,1016.57
2022-10-18T10:32:22.222Z,1016.53
2022-10-18T10:33:22.156Z,1016.54
2022-10-18T10:34:22.151Z,1016.52
2022-10-18T10:35:35.445Z,1016.47
2022-10-18T10:36:22.197Z,1016.5
2022-10-18T10:37:22.152Z,1016.5
2022-10-18T10:38:22.140Z,1016.51
2022-10-18T10:39:22.150Z,1016.54
2022-10-18T10:40:29.382Z,1016.58
2022-10-18T10:41:22.231Z,1016.56
2022-10-18T10:42:22.158Z,1016.56
2022-10-18T10:43:37.930Z,1016.58
2022-10-18T10:44:22.238Z,1016.51
2022-10-18T10:45:22.146Z,1016.49
2022-10-18T10:46:22.200Z,1016.51
2022-10-18T10:47:22.152Z,1016.52
2022-10-18T10:48:22.155Z,1016.51
2022-10-18T10:49:40.537Z,1016.6
2022-10-18T10:50:22.182Z,1016.63
2022-10-18T10:51:22.194Z,1016.65
2022-10-18T10:52:29.504Z,1016.66
2022-10-18T10:53:22.228Z,1016.66
2022-10-18T10:54:22.151Z,1016.62
2022-10-18T10:55:35.125Z,1016.56
2022-10-18T10:56:22.138Z,1016.57
2022-10-18T10:57:22.404Z,1016.6
2022-10-18T10:58:22.453Z,1016.62
2022-10-18T10:59:22.532Z,1016.64
2022-10-18T11:00:22.533Z,1016.67
2022-10-18T11:01:22.587Z,1016.69
2022-10-18T11:02:22.546Z,1016.66
2022-10-18T11:03:31.590Z,1016.65
2022-10-18T11:04:22.640Z,1016.67
2022-10-18T11:05:22.450Z,1016.66
2022-10-18T11:06:22.593Z,1016.62
2022-10-18T11:07:22.953Z,1016.61
2022-10-18T11:08:26.611Z,1016.6
2022-10-18T11:09:22.199Z,1016.63
2022-10-18T11:10:22.157Z,1016.66
2022-10-18T11:11:25.220Z,1016.72
2022-10-18T11:12:22.143Z,1016.74
2022-10-18T11:13:22.147Z,1016.7
2022-10-18T11:14:28.173Z,1016.71
2022-10-18T11:15:22.149Z,1016.69
2022-10-18T11:16:22.205Z,1016.67
2022-10-18T11:17:22.250Z,1016.67
2022-10-18T11:18:22.158Z,1016.7
2022-10-18T11:19:27.834Z,1016.69
2022-10-18T11:20:22.157Z,1016.72
2022-10-18T11:21:22.178Z,1016.72
2022-10-18T11:22:22.177Z,1016.74
2022-10-18T11:23:22.147Z,1016.75
2022-10-18T11:24:22.139Z,1016.72
2022-10-18T11:25:22.148Z,1016.67
2022-10-18T11:26:22.205Z,1016.68
2022-10-18T11:27:22.195Z,1016.67
2022-10-18T11:28:22.146Z,1016.67
2022-10-18T11:29:22.193Z,1016.67
2022-10-18T11:30:22.158Z,1016.69
2022-10-18T11:31:22.287Z,1016.68
2022-10-18T11:32:22.159Z,1016.69
2022-10-18T11:33:33.779Z,1016.69
2022-10-18T11:34:22.137Z,1016.7
2022-10-18T11:35:22.155Z,1016.68
2022-10-18T11:37:33.365Z,1016.65
2022-10-18T11:38:22.175Z,1016.62
2022-10-18T11:39:22.147Z,1016.62
2022-10-18T11:40:22.142Z,1016.62
2022-10-18T11:41:22.224Z,1016.68
2022-10-18T11:42:22.186Z,1016.69
2022-10-18T11:43:23.107Z,1016.72
2022-10-18T11:44:22.144Z,1016.69
2022-10-18T11:45:22.153Z,1016.68
2022-10-18T11:46:22.198Z,1016.65
2022-10-18T11:47:22.184Z,1016.61
2022-10-18T11:48:22.155Z,1016.58
2022-10-18T11:49:22.146Z,1016.58
2022-10-18T11:50:22.149Z,1016.58
2022-10-18T11:51:33.806Z,1016.58
2022-10-18T11:52:22.475Z,1016.59
2022-10-18T11:53:22.947Z,1016.63
2022-10-18T11:54:22.773Z,1016.64
2022-10-18T11:55:22.148Z,1016.64
2022-10-18T11:56:22.317Z,1016.63
2022-10-18T11:57:22.555Z,1016.58
2022-10-18T11:58:21.919Z,1016.49
2022-10-18T11:59:22.236Z,1016.52
2022-10-18T12:00:22.500Z,1016.51
2022-10-18T12:01:28.417Z,1016.51
2022-10-18T12:02:22.329Z,1016.53
2022-10-18T12:03:22.544Z,1016.53
2022-10-18T12:04:22.760Z,1016.52
2022-10-18T12:05:25.991Z,1016.49
2022-10-18T12:06:22.510Z,1016.42
2022-10-18T12:07:32.557Z,1016.37
2022-10-18T12:08:23.160Z,1016.38